sensor_id;sensor_type;location;lat;lon;timestamp;pressure;altitude;pressure_sealevel;temperature;humidity
26376;BME280;30544;42.196;24.336;2023-01-26T00:01:48;100008.56;;;2.91;84.39
26376;BME280;30544;42.196;24.336;2023-01-26T00:04:15;99999.50;;;2.51;85.37
26376;BME280;30544;42.196;24.336;2023-01-26T00:06:43;99980.59;;;2.72;84.00
26376;BME280;30544;42.196;24.336;2023-01-26T00:09:12;99993.94;;;2.76;84.79
26376;BME280;30544;42.196;24.336;2023-01-26T00:11:39;99991.78;;;2.94;84.00
26376;BME280;30544;42.196;24.336;2023-01-26T00:14:06;99986.66;;;2.52;85.74
26376;BME280;30544;42.196;24.336;2023-01-26T00:16:33;99973.41;;;2.71;85.32
26376;BME280;30544;42.196;24.336;2023-01-26T00:19:00;99982.25;;;2.42;86.58
26376;BME280;30544;42.196;24.336;2023-01-26T00:21:27;99972.47;;;2.48;86.70
26376;BME280;30544;42.196;24.336;2023-01-26T00:23:56;99976.91;;;2.88;85.70
26376;BME280;30544;42.196;24.336;2023-01-26T00:26:24;99973.75;;;2.68;85.55
26376;BME280;30544;42.196;24.336;2023-01-26T00:28:52;99979.47;;;2.90;85.44
26376;BME280;30544;42.196;24.336;2023-01-26T00:31:21;99977.50;;;2.98;83.90
26376;BME280;30544;42.196;24.336;2023-01-26T00:33:48;99986.00;;;2.81;84.33
26376;BME280;30544;42.196;24.336;2023-01-26T00:36:15;99988.00;;;2.95;83.86
26376;BME280;30544;42.196;24.336;2023-01-26T00:38:42;99979.66;;;2.88;81.87
26376;BME280;30544;42.196;24.336;2023-01-26T00:41:10;99976.75;;;2.82;81.98
26376;BME280;30544;42.196;24.336;2023-01-26T00:43:57;99979.03;;;3.01;80.83
26376;BME280;30544;42.196;24.336;2023-01-26T00:46:24;99977.41;;;2.92;81.66
26376;BME280;30544;42.196;24.336;2023-01-26T00:48:51;99979.19;;;3.08;81.64
26376;BME280;30544;42.196;24.336;2023-01-26T00:51:18;99969.22;;;2.84;81.94
26376;BME280;30544;42.196;24.336;2023-01-26T00:53:45;99964.38;;;2.94;80.55
26376;BME280;30544;42.196;24.336;2023-01-26T00:56:13;99967.38;;;3.07;80.34
26376;BME280;30544;42.196;24.336;2023-01-26T00:58:40;99970.09;;;3.07;80.25
26376;BME280;30544;42.196;24.336;2023-01-26T01:01:07;99968.03;;;3.09;80.36
26376;BME280;30544;42.196;24.336;2023-01-26T01:03:34;99971.81;;;3.08;80.85
26376;BME280;30544;42.196;24.336;2023-01-26T01:06:00;99966.06;;;2.95;78.56
26376;BME280;30544;42.196;24.336;2023-01-26T01:08:27;99961.81;;;2.92;79.87
26376;BME280;30544;42.196;24.336;2023-01-26T01:11:02;99962.78;;;2.99;78.31
26376;BME280;30544;42.196;24.336;2023-01-26T01:13:30;99955.97;;;3.18;78.89
26376;BME280;30544;42.196;24.336;2023-01-26T01:15:57;99953.41;;;3.17;78.83
26376;BME280;30544;42.196;24.336;2023-01-26T01:18:23;99949.31;;;3.13;77.04
26376;BME280;30544;42.196;24.336;2023-01-26T01:20:50;99941.97;;;3.13;78.14
26376;BME280;30544;42.196;24.336;2023-01-26T01:23:17;99947.22;;;3.23;78.08
26376;BME280;30544;42.196;24.336;2023-01-26T01:25:44;99944.13;;;3.18;79.35
26376;BME280;30544;42.196;24.336;2023-01-26T01:28:11;99937.50;;;3.35;78.80
26376;BME280;30544;42.196;24.336;2023-01-26T01:30:39;99936.00;;;3.10;81.76
26376;BME280;30544;42.196;24.336;2023-01-26T01:33:06;99941.28;;;3.11;82.39
26376;BME280;30544;42.196;24.336;2023-01-26T01:35:33;99940.88;;;3.22;82.85
26376;BME280;30544;42.196;24.336;2023-01-26T01:38:00;99938.00;;;3.16;83.65
26376;BME280;30544;42.196;24.336;2023-01-26T01:40:28;99927.69;;;2.95;83.44
26376;BME280;30544;42.196;24.336;2023-01-26T01:42:54;99937.59;;;3.04;83.62
26376;BME280;30544;42.196;24.336;2023-01-26T01:45:43;99924.19;;;3.09;83.66
26376;BME280;30544;42.196;24.336;2023-01-26T01:48:19;99915.56;;;3.12;83.88
26376;BME280;30544;42.196;24.336;2023-01-26T01:50:51;99917.94;;;3.15;80.92
26376;BME280;30544;42.196;24.336;2023-01-26T01:53:22;99902.81;;;3.05;81.36
26376;BME280;30544;42.196;24.336;2023-01-26T01:55:52;99913.59;;;3.06;82.06
26376;BME280;30544;42.196;24.336;2023-01-26T01:58:20;99904.06;;;2.94;80.87
26376;BME280;30544;42.196;24.336;2023-01-26T02:00:49;99903.63;;;2.82;78.73
26376;BME280;30544;42.196;24.336;2023-01-26T02:03:15;99896.41;;;2.89;79.84
26376;BME280;30544;42.196;24.336;2023-01-26T02:05:53;99902.28;;;3.01;77.96
26376;BME280;30544;42.196;24.336;2023-01-26T02:08:21;99901.22;;;2.87;78.68
26376;BME280;30544;42.196;24.336;2023-01-26T02:10:53;99894.03;;;2.86;79.99
26376;BME280;30544;42.196;24.336;2023-01-26T02:13:21;99885.66;;;2.80;80.78
26376;BME280;30544;42.196;24.336;2023-01-26T02:15:51;99891.41;;;2.93;81.10
26376;BME280;30544;42.196;24.336;2023-01-26T02:18:18;99889.22;;;2.88;81.52
26376;BME280;30544;42.196;24.336;2023-01-26T02:20:48;99891.69;;;2.98;81.45
26376;BME280;30544;42.196;24.336;2023-01-26T02:23:23;99894.19;;;2.85;80.98
26376;BME280;30544;42.196;24.336;2023-01-26T02:26:14;99877.81;;;2.77;82.72
26376;BME280;30544;42.196;24.336;2023-01-26T02:28:43;99887.50;;;2.87;82.81
26376;BME280;30544;42.196;24.336;2023-01-26T02:31:10;99884.66;;;3.04;80.67
26376;BME280;30544;42.196;24.336;2023-01-26T02:33:37;99870.69;;;3.13;81.57
26376;BME280;30544;42.196;24.336;2023-01-26T02:36:05;99872.69;;;3.19;80.57
26376;BME280;30544;42.196;24.336;2023-01-26T02:38:38;99868.22;;;3.18;80.86
26376;BME280;30544;42.196;24.336;2023-01-26T02:41:07;99869.78;;;2.75;82.72
26376;BME280;30544;42.196;24.336;2023-01-26T02:43:37;99882.75;;;3.04;81.30
26376;BME280;30544;42.196;24.336;2023-01-26T02:46:04;99870.81;;;2.97;81.49
26376;BME280;30544;42.196;24.336;2023-01-26T02:48:31;99869.28;;;2.94;82.24
26376;BME280;30544;42.196;24.336;2023-01-26T02:51:16;99877.63;;;3.01;82.32
26376;BME280;30544;42.196;24.336;2023-01-26T02:53:42;99854.75;;;2.94;82.67
26376;BME280;30544;42.196;24.336;2023-01-26T02:56:09;99857.72;;;3.07;81.94
26376;BME280;30544;42.196;24.336;2023-01-26T02:58:36;99850.81;;;3.11;82.70
26376;BME280;30544;42.196;24.336;2023-01-26T03:01:03;99844.25;;;2.97;82.70
26376;BME280;30544;42.196;24.336;2023-01-26T03:03:30;99841.88;;;2.94;82.87
26376;BME280;30544;42.196;24.336;2023-01-26T03:06:08;99837.03;;;3.05;83.86
26376;BME280;30544;42.196;24.336;2023-01-26T03:08:35;99838.47;;;2.92;83.54
26376;BME280;30544;42.196;24.336;2023-01-26T03:11:02;99832.34;;;2.90;82.99
26376;BME280;30544;42.196;24.336;2023-01-26T03:13:29;99829.88;;;2.95;83.98
26376;BME280;30544;42.196;24.336;2023-01-26T03:15:57;99824.50;;;2.87;84.89
26376;BME280;30544;42.196;24.336;2023-01-26T03:18:27;99817.69;;;2.98;83.77
26376;BME280;30544;42.196;24.336;2023-01-26T03:21:13;99817.59;;;2.91;83.78
26376;BME280;30544;42.196;24.336;2023-01-26T03:23:58;99810.09;;;2.85;84.36
26376;BME280;30544;42.196;24.336;2023-01-26T03:26:43;99804.47;;;2.87;85.20
26376;BME280;30544;42.196;24.336;2023-01-26T03:29:27;99806.78;;;3.13;84.66
26376;BME280;30544;42.196;24.336;2023-01-26T03:31:56;99800.88;;;3.01;85.31
26376;BME280;30544;42.196;24.336;2023-01-26T03:34:24;99796.94;;;3.04;84.15
26376;BME280;30544;42.196;24.336;2023-01-26T03:36:51;99787.81;;;2.88;84.54
26376;BME280;30544;42.196;24.336;2023-01-26T03:39:17;99788.31;;;2.92;83.51
26376;BME280;30544;42.196;24.336;2023-01-26T03:42:03;99790.75;;;2.87;84.39
26376;BME280;30544;42.196;24.336;2023-01-26T03:44:47;99786.25;;;2.71;83.88
26376;BME280;30544;42.196;24.336;2023-01-26T03:47:33;99792.22;;;2.75;82.77
26376;BME280;30544;42.196;24.336;2023-01-26T03:50:17;99796.28;;;2.79;83.33
26376;BME280;30544;42.196;24.336;2023-01-26T03:53:01;99789.41;;;2.83;83.28
26376;BME280;30544;42.196;24.336;2023-01-26T03:55:45;99780.50;;;2.81;84.37
26376;BME280;30544;42.196;24.336;2023-01-26T03:58:29;99770.72;;;2.86;84.90
26376;BME280;30544;42.196;24.336;2023-01-26T04:00:56;99774.66;;;2.84;86.46
26376;BME280;30544;42.196;24.336;2023-01-26T04:03:24;99773.56;;;2.93;85.77
26376;BME280;30544;42.196;24.336;2023-01-26T04:06:08;99775.06;;;2.95;87.43
26376;BME280;30544;42.196;24.336;2023-01-26T04:08:52;99786.25;;;2.48;86.57
26376;BME280;30544;42.196;24.336;2023-01-26T04:11:19;99789.09;;;2.78;86.37
26376;BME280;30544;42.196;24.336;2023-01-26T04:13:46;99787.25;;;2.55;84.95
26376;BME280;30544;42.196;24.336;2023-01-26T04:16:30;99783.75;;;2.61;83.95
26376;BME280;30544;42.196;24.336;2023-01-26T04:19:15;99786.69;;;2.37;85.66
26376;BME280;30544;42.196;24.336;2023-01-26T04:22:00;99782.16;;;2.67;84.98
26376;BME280;30544;42.196;24.336;2023-01-26T04:24:26;99778.28;;;2.61;87.31
26376;BME280;30544;42.196;24.336;2023-01-26T04:26:53;99769.25;;;2.07;90.18
26376;BME280;30544;42.196;24.336;2023-01-26T04:29:20;99765.41;;;2.16;90.93
26376;BME280;30544;42.196;24.336;2023-01-26T04:31:47;99759.63;;;2.34;90.30
26376;BME280;30544;42.196;24.336;2023-01-26T04:34:16;99757.75;;;2.11;91.72
26376;BME280;30544;42.196;24.336;2023-01-26T04:36:42;99755.19;;;2.33;91.43
26376;BME280;30544;42.196;24.336;2023-01-26T04:39:09;99745.97;;;2.34;92.64
26376;BME280;30544;42.196;24.336;2023-01-26T04:41:36;99752.47;;;2.33;92.40
26376;BME280;30544;42.196;24.336;2023-01-26T04:44:03;99747.63;;;2.43;92.96
26376;BME280;30544;42.196;24.336;2023-01-26T04:46:30;99746.00;;;2.03;92.73
26376;BME280;30544;42.196;24.336;2023-01-26T04:48:57;99747.72;;;2.27;92.70
26376;BME280;30544;42.196;24.336;2023-01-26T04:51:25;99744.03;;;2.20;93.94
26376;BME280;30544;42.196;24.336;2023-01-26T04:53:53;99750.88;;;1.85;95.61
26376;BME280;30544;42.196;24.336;2023-01-26T04:56:22;99742.94;;;1.98;96.28
26376;BME280;30544;42.196;24.336;2023-01-26T04:58:49;99743.22;;;1.80;95.80
26376;BME280;30544;42.196;24.336;2023-01-26T05:01:16;99748.38;;;1.75;96.90
26376;BME280;30544;42.196;24.336;2023-01-26T05:03:43;99753.56;;;1.62;98.09
26376;BME280;30544;42.196;24.336;2023-01-26T05:06:10;99751.41;;;1.88;98.24
26376;BME280;30544;42.196;24.336;2023-01-26T05:08:38;99749.41;;;2.05;96.19
26376;BME280;30544;42.196;24.336;2023-01-26T05:11:05;99739.13;;;2.07;96.37
26376;BME280;30544;42.196;24.336;2023-01-26T05:13:32;99745.50;;;1.99;95.79
26376;BME280;30544;42.196;24.336;2023-01-26T05:16:00;99747.84;;;2.10;96.51
26376;BME280;30544;42.196;24.336;2023-01-26T05:18:27;99744.06;;;1.80;95.51
26376;BME280;30544;42.196;24.336;2023-01-26T05:20:54;99740.84;;;2.08;95.57
26376;BME280;30544;42.196;24.336;2023-01-26T05:23:20;99739.81;;;2.09;96.35
26376;BME280;30544;42.196;24.336;2023-01-26T05:25:49;99738.88;;;1.94;96.80
26376;BME280;30544;42.196;24.336;2023-01-26T05:28:16;99742.94;;;1.98;96.33
26376;BME280;30544;42.196;24.336;2023-01-26T05:30:42;99735.22;;;2.01;96.05
26376;BME280;30544;42.196;24.336;2023-01-26T05:33:09;99734.81;;;2.13;96.06
26376;BME280;30544;42.196;24.336;2023-01-26T05:35:36;99731.59;;;2.09;95.49
26376;BME280;30544;42.196;24.336;2023-01-26T05:38:03;99727.19;;;2.00;95.11
26376;BME280;30544;42.196;24.336;2023-01-26T05:40:30;99726.59;;;1.90;95.18
26376;BME280;30544;42.196;24.336;2023-01-26T05:42:58;99728.84;;;1.86;95.55
26376;BME280;30544;42.196;24.336;2023-01-26T05:45:25;99716.41;;;2.06;95.29
26376;BME280;30544;42.196;24.336;2023-01-26T05:47:52;99718.59;;;2.11;94.75
26376;BME280;30544;42.196;24.336;2023-01-26T05:50:19;99726.31;;;2.07;94.31
26376;BME280;30544;42.196;24.336;2023-01-26T05:52:46;99724.91;;;2.11;94.99
26376;BME280;30544;42.196;24.336;2023-01-26T05:55:14;99717.06;;;1.86;96.38
26376;BME280;30544;42.196;24.336;2023-01-26T05:57:41;99728.78;;;1.94;96.40
26376;BME280;30544;42.196;24.336;2023-01-26T06:00:11;99725.69;;;1.97;95.74
26376;BME280;30544;42.196;24.336;2023-01-26T06:02:38;99723.94;;;2.04;96.70
26376;BME280;30544;42.196;24.336;2023-01-26T06:05:06;99726.69;;;2.04;96.44
26376;BME280;30544;42.196;24.336;2023-01-26T06:07:33;99723.84;;;2.21;95.67
26376;BME280;30544;42.196;24.336;2023-01-26T06:10:00;99721.44;;;2.18;96.64
26376;BME280;30544;42.196;24.336;2023-01-26T06:12:26;99718.59;;;2.11;95.55
26376;BME280;30544;42.196;24.336;2023-01-26T06:14:56;99720.47;;;2.10;95.83
26376;BME280;30544;42.196;24.336;2023-01-26T06:17:24;99710.38;;;2.11;95.75
26376;BME280;30544;42.196;24.336;2023-01-26T06:19:51;99714.50;;;2.07;95.83
26376;BME280;30544;42.196;24.336;2023-01-26T06:22:17;99719.69;;;2.02;96.47
26376;BME280;30544;42.196;24.336;2023-01-26T06:24:44;99714.44;;;1.92;96.65
26376;BME280;30544;42.196;24.336;2023-01-26T06:27:12;99708.84;;;2.08;96.97
26376;BME280;30544;42.196;24.336;2023-01-26T06:29:39;99720.06;;;2.22;95.82
26376;BME280;30544;42.196;24.336;2023-01-26T06:32:07;99719.63;;;2.33;96.10
26376;BME280;30544;42.196;24.336;2023-01-26T06:34:36;99717.09;;;2.00;97.12
26376;BME280;30544;42.196;24.336;2023-01-26T06:37:03;99714.44;;;1.92;97.69
26376;BME280;30544;42.196;24.336;2023-01-26T06:39:30;99715.69;;;1.81;97.07
26376;BME280;30544;42.196;24.336;2023-01-26T06:41:56;99712.28;;;1.79;99.06
26376;BME280;30544;42.196;24.336;2023-01-26T06:44:23;99709.06;;;1.76;98.89
26376;BME280;30544;42.196;24.336;2023-01-26T06:46:50;99707.91;;;1.70;98.94
26376;BME280;30544;42.196;24.336;2023-01-26T06:49:17;99699.78;;;2.08;98.46
26376;BME280;30544;42.196;24.336;2023-01-26T06:51:52;99699.81;;;1.77;97.13
26376;BME280;30544;42.196;24.336;2023-01-26T06:54:20;99700.25;;;1.89;98.11
26376;BME280;30544;42.196;24.336;2023-01-26T06:56:47;99692.06;;;1.89;97.35
26376;BME280;30544;42.196;24.336;2023-01-26T06:59:14;99695.34;;;1.53;97.35
26376;BME280;30544;42.196;24.336;2023-01-26T07:01:44;99690.47;;;1.94;98.22
26376;BME280;30544;42.196;24.336;2023-01-26T07:04:11;99692.06;;;2.11;97.34
26376;BME280;30544;42.196;24.336;2023-01-26T07:06:38;99678.97;;;1.76;98.18
26376;BME280;30544;42.196;24.336;2023-01-26T07:09:06;99683.22;;;1.78;97.77
26376;BME280;30544;42.196;24.336;2023-01-26T07:11:33;99687.53;;;1.73;98.46
26376;BME280;30544;42.196;24.336;2023-01-26T07:14:00;99672.72;;;1.90;97.05
26376;BME280;30544;42.196;24.336;2023-01-26T07:16:27;99681.41;;;1.71;96.48
26376;BME280;30544;42.196;24.336;2023-01-26T07:18:53;99662.75;;;1.97;96.52
26376;BME280;30544;42.196;24.336;2023-01-26T07:21:21;99663.47;;;1.68;97.04
26376;BME280;30544;42.196;24.336;2023-01-26T07:23:48;99661.06;;;1.65;96.02
26376;BME280;30544;42.196;24.336;2023-01-26T07:26:17;99665.22;;;1.84;97.42
26376;BME280;30544;42.196;24.336;2023-01-26T07:28:44;99664.91;;;1.79;96.68
26376;BME280;30544;42.196;24.336;2023-01-26T07:31:11;99657.81;;;1.93;96.79
26376;BME280;30544;42.196;24.336;2023-01-26T07:33:38;99655.53;;;2.04;95.92
26376;BME280;30544;42.196;24.336;2023-01-26T07:36:06;99649.25;;;1.96;94.93
26376;BME280;30544;42.196;24.336;2023-01-26T07:38:33;99653.19;;;1.93;93.90
26376;BME280;30544;42.196;24.336;2023-01-26T07:41:04;99655.56;;;1.73;94.94
26376;BME280;30544;42.196;24.336;2023-01-26T07:43:33;99653.56;;;1.90;95.13
26376;BME280;30544;42.196;24.336;2023-01-26T07:46:00;99661.28;;;1.87;94.92
26376;BME280;30544;42.196;24.336;2023-01-26T07:48:27;99658.69;;;1.93;94.95
26376;BME280;30544;42.196;24.336;2023-01-26T07:50:57;99649.06;;;1.97;95.51
26376;BME280;30544;42.196;24.336;2023-01-26T07:53:24;99646.69;;;2.17;94.93
26376;BME280;30544;42.196;24.336;2023-01-26T07:55:54;99651.13;;;2.18;94.50
26376;BME280;30544;42.196;24.336;2023-01-26T07:58:21;99649.69;;;2.07;96.04
26376;BME280;30544;42.196;24.336;2023-01-26T08:00:49;99647.38;;;2.19;94.22
26376;BME280;30544;42.196;24.336;2023-01-26T08:03:16;99652.66;;;1.98;95.47
26376;BME280;30544;42.196;24.336;2023-01-26T08:05:43;99646.53;;;2.19;95.02
26376;BME280;30544;42.196;24.336;2023-01-26T08:08:11;99644.31;;;2.14;93.82
26376;BME280;30544;42.196;24.336;2023-01-26T08:10:38;99640.78;;;2.28;93.81
26376;BME280;30544;42.196;24.336;2023-01-26T08:13:05;99633.00;;;2.17;93.69
26376;BME280;30544;42.196;24.336;2023-01-26T08:15:31;99645.84;;;1.94;94.74
26376;BME280;30544;42.196;24.336;2023-01-26T08:18:00;99641.53;;;1.99;95.31
26376;BME280;30544;42.196;24.336;2023-01-26T08:20:28;99634.97;;;2.08;94.46
26376;BME280;30544;42.196;24.336;2023-01-26T08:22:55;99626.81;;;2.00;92.75
26376;BME280;30544;42.196;24.336;2023-01-26T08:25:22;99636.97;;;1.69;95.39
26376;BME280;30544;42.196;24.336;2023-01-26T08:27:48;99640.94;;;1.89;96.18
26376;BME280;30544;42.196;24.336;2023-01-26T08:30:16;99630.09;;;1.96;95.34
26376;BME280;30544;42.196;24.336;2023-01-26T08:32:43;99640.31;;;1.79;95.72
26376;BME280;30544;42.196;24.336;2023-01-26T08:35:11;99640.00;;;1.97;95.94
26376;BME280;30544;42.196;24.336;2023-01-26T08:37:38;99628.41;;;1.72;97.00
26376;BME280;30544;42.196;24.336;2023-01-26T08:40:06;99637.56;;;1.79;96.14
26376;BME280;30544;42.196;24.336;2023-01-26T08:42:33;99636.31;;;1.90;96.53
26376;BME280;30544;42.196;24.336;2023-01-26T08:45:00;99636.13;;;1.91;95.16
26376;BME280;30544;42.196;24.336;2023-01-26T08:47:26;99636.34;;;1.81;95.85
26376;BME280;30544;42.196;24.336;2023-01-26T08:49:53;99631.78;;;1.97;96.72
26376;BME280;30544;42.196;24.336;2023-01-26T08:52:21;99637.63;;;1.94;94.96
26376;BME280;30544;42.196;24.336;2023-01-26T08:54:48;99626.09;;;2.06;94.71
26376;BME280;30544;42.196;24.336;2023-01-26T08:57:15;99625.34;;;2.13;95.08
26376;BME280;30544;42.196;24.336;2023-01-26T08:59:42;99620.28;;;2.24;96.23
26376;BME280;30544;42.196;24.336;2023-01-26T09:02:09;99620.00;;;1.96;95.63
26376;BME280;30544;42.196;24.336;2023-01-26T09:04:36;99625.56;;;2.26;95.36
26376;BME280;30544;42.196;24.336;2023-01-26T09:07:02;99623.22;;;2.23;96.66
26376;BME280;30544;42.196;24.336;2023-01-26T09:09:31;99621.91;;;2.33;96.14
26376;BME280;30544;42.196;24.336;2023-01-26T09:11:58;99619.97;;;2.42;95.22
26376;BME280;30544;42.196;24.336;2023-01-26T09:14:25;99622.41;;;2.52;94.37
26376;BME280;30544;42.196;24.336;2023-01-26T09:16:53;99622.50;;;2.44;93.40
26376;BME280;30544;42.196;24.336;2023-01-26T09:19:20;99615.38;;;2.20;94.80
26376;BME280;30544;42.196;24.336;2023-01-26T09:21:51;99613.72;;;2.48;94.11
26376;BME280;30544;42.196;24.336;2023-01-26T09:24:18;99600.28;;;2.24;94.31
26376;BME280;30544;42.196;24.336;2023-01-26T09:26:46;99595.72;;;2.54;94.11
26376;BME280;30544;42.196;24.336;2023-01-26T09:29:13;99599.09;;;2.41;94.19
26376;BME280;30544;42.196;24.336;2023-01-26T09:31:40;99592.25;;;2.22;94.14
26376;BME280;30544;42.196;24.336;2023-01-26T09:34:07;99582.59;;;2.11;94.93
26376;BME280;30544;42.196;24.336;2023-01-26T09:36:34;99572.09;;;2.53;94.89
26376;BME280;30544;42.196;24.336;2023-01-26T09:39:01;99574.22;;;2.28;95.41
26376;BME280;30544;42.196;24.336;2023-01-26T09:41:57;99567.28;;;2.40;94.30
26376;BME280;30544;42.196;24.336;2023-01-26T09:44:31;99563.59;;;2.48;94.27
26376;BME280;30544;42.196;24.336;2023-01-26T09:47:04;99553.41;;;2.56;93.71
26376;BME280;30544;42.196;24.336;2023-01-26T09:49:44;99552.56;;;2.56;94.00
26376;BME280;30544;42.196;24.336;2023-01-26T09:52:17;99554.06;;;2.88;93.43
26376;BME280;30544;42.196;24.336;2023-01-26T09:54:50;99555.75;;;2.45;93.88
26376;BME280;30544;42.196;24.336;2023-01-26T09:57:23;99550.75;;;2.48;95.01
26376;BME280;30544;42.196;24.336;2023-01-26T09:59:57;99529.50;;;2.35;94.31
26376;BME280;30544;42.196;24.336;2023-01-26T10:02:37;99532.25;;;2.35;95.45
26376;BME280;30544;42.196;24.336;2023-01-26T10:05:14;99535.72;;;2.44;94.43
26376;BME280;30544;42.196;24.336;2023-01-26T10:07:44;99536.78;;;2.43;94.29
26376;BME280;30544;42.196;24.336;2023-01-26T10:10:16;99530.38;;;2.36;94.78
26376;BME280;30544;42.196;24.336;2023-01-26T10:12:46;99525.91;;;2.35;93.63
26376;BME280;30544;42.196;24.336;2023-01-26T10:15:25;99514.09;;;2.20;95.21
26376;BME280;30544;42.196;24.336;2023-01-26T10:17:54;99515.31;;;2.32;95.85
26376;BME280;30544;42.196;24.336;2023-01-26T10:20:26;99502.59;;;2.24;96.02
26376;BME280;30544;42.196;24.336;2023-01-26T10:22:55;99498.34;;;2.22;96.13
26376;BME280;30544;42.196;24.336;2023-01-26T10:25:29;99479.94;;;2.30;96.30
26376;BME280;30544;42.196;24.336;2023-01-26T10:28:01;99487.38;;;2.66;95.66
26376;BME280;30544;42.196;24.336;2023-01-26T10:30:35;99474.63;;;2.73;94.98
26376;BME280;30544;42.196;24.336;2023-01-26T10:33:12;99470.59;;;2.25;94.97
26376;BME280;30544;42.196;24.336;2023-01-26T10:35:40;99467.94;;;2.46;95.18
26376;BME280;30544;42.196;24.336;2023-01-26T10:38:37;99458.03;;;2.45;94.73
26376;BME280;30544;42.196;24.336;2023-01-26T10:41:05;99449.72;;;2.53;97.11
26376;BME280;30544;42.196;24.336;2023-01-26T10:43:36;99446.63;;;2.27;95.81
26376;BME280;30544;42.196;24.336;2023-01-26T10:46:08;99444.66;;;2.35;95.37
26376;BME280;30544;42.196;24.336;2023-01-26T10:48:50;99432.78;;;2.64;95.17
26376;BME280;30544;42.196;24.336;2023-01-26T10:51:23;99439.44;;;2.40;95.41
26376;BME280;30544;42.196;24.336;2023-01-26T10:54:12;99434.44;;;2.80;94.31
26376;BME280;30544;42.196;24.336;2023-01-26T10:56:43;99422.00;;;2.78;93.39
26376;BME280;30544;42.196;24.336;2023-01-26T10:59:14;99422.81;;;2.42;94.33
26376;BME280;30544;42.196;24.336;2023-01-26T11:01:53;99406.16;;;2.73;93.48
26376;BME280;30544;42.196;24.336;2023-01-26T11:04:21;99396.66;;;3.12;93.31
26376;BME280;30544;42.196;24.336;2023-01-26T11:06:48;99394.75;;;2.91;91.34
26376;BME280;30544;42.196;24.336;2023-01-26T11:09:20;99390.97;;;2.92;92.44
26376;BME280;30544;42.196;24.336;2023-01-26T11:11:59;99376.91;;;2.80;91.34
26376;BME280;30544;42.196;24.336;2023-01-26T11:14:29;99375.97;;;2.88;91.35
26376;BME280;30544;42.196;24.336;2023-01-26T11:17:04;99367.88;;;3.22;91.87
26376;BME280;30544;42.196;24.336;2023-01-26T11:19:46;99375.56;;;3.12;89.70
26376;BME280;30544;42.196;24.336;2023-01-26T11:22:18;99364.53;;;3.27;89.29
26376;BME280;30544;42.196;24.336;2023-01-26T11:24:54;99359.38;;;2.96;91.16
26376;BME280;30544;42.196;24.336;2023-01-26T11:27:38;99347.91;;;3.56;89.07
26376;BME280;30544;42.196;24.336;2023-01-26T11:30:35;99339.81;;;3.20;89.56
26376;BME280;30544;42.196;24.336;2023-01-26T11:33:19;99335.53;;;3.39;89.25
26376;BME280;30544;42.196;24.336;2023-01-26T11:35:54;99337.56;;;3.58;88.49
26376;BME280;30544;42.196;24.336;2023-01-26T11:38:34;99324.84;;;3.23;89.02
26376;BME280;30544;42.196;24.336;2023-01-26T11:41:17;99318.59;;;3.57;90.85
26376;BME280;30544;42.196;24.336;2023-01-26T11:46:48;99316.28;;;3.60;90.51
26376;BME280;30544;42.196;24.336;2023-01-26T11:49:28;99308.97;;;3.18;90.32
26376;BME280;30544;42.196;24.336;2023-01-26T11:52:08;99308.06;;;3.60;90.41
26376;BME280;30544;42.196;24.336;2023-01-26T11:55:12;99307.81;;;3.27;90.26
26376;BME280;30544;42.196;24.336;2023-01-26T11:57:47;99300.44;;;3.56;88.29
26376;BME280;30544;42.196;24.336;2023-01-26T12:00:21;99296.94;;;3.41;89.16
26376;BME280;30544;42.196;24.336;2023-01-26T12:02:57;99299.63;;;3.34;89.94
26376;BME280;30544;42.196;24.336;2023-01-26T12:05:27;99297.50;;;3.29;90.21
26376;BME280;30544;42.196;24.336;2023-01-26T12:07:59;99293.00;;;3.50;88.74
26376;BME280;30544;42.196;24.336;2023-01-26T12:10:32;99292.31;;;3.41;90.14
26376;BME280;30544;42.196;24.336;2023-01-26T12:13:04;99289.47;;;3.56;89.83
26376;BME280;30544;42.196;24.336;2023-01-26T12:15:37;99278.53;;;3.62;89.81
26376;BME280;30544;42.196;24.336;2023-01-26T12:18:15;99271.69;;;3.52;90.20
26376;BME280;30544;42.196;24.336;2023-01-26T12:20:49;99270.47;;;3.54;91.72
26376;BME280;30544;42.196;24.336;2023-01-26T12:23:26;99273.63;;;3.23;92.36
26376;BME280;30544;42.196;24.336;2023-01-26T12:25:58;99269.22;;;3.57;91.78
26376;BME280;30544;42.196;24.336;2023-01-26T12:28:29;99260.81;;;3.65;91.23
26376;BME280;30544;42.196;24.336;2023-01-26T12:31:02;99266.69;;;3.62;92.10
26376;BME280;30544;42.196;24.336;2023-01-26T12:33:32;99252.88;;;3.14;90.80
26376;BME280;30544;42.196;24.336;2023-01-26T12:36:11;99241.38;;;3.60;91.92
26376;BME280;30544;42.196;24.336;2023-01-26T12:38:54;99254.63;;;3.22;91.87
26376;BME280;30544;42.196;24.336;2023-01-26T12:41:32;99250.94;;;3.08;93.41
26376;BME280;30544;42.196;24.336;2023-01-26T12:44:12;99245.25;;;3.38;91.56
26376;BME280;30544;42.196;24.336;2023-01-26T12:46:43;99253.47;;;3.38;91.63
26376;BME280;30544;42.196;24.336;2023-01-26T12:49:16;99250.13;;;3.42;93.04
26376;BME280;30544;42.196;24.336;2023-01-26T12:51:49;99246.22;;;3.58;92.20
26376;BME280;30544;42.196;24.336;2023-01-26T12:54:22;99235.91;;;3.32;91.95
26376;BME280;30544;42.196;24.336;2023-01-26T12:56:56;99238.22;;;3.00;92.52
26376;BME280;30544;42.196;24.336;2023-01-26T12:59:29;99228.38;;;3.06;92.04
26376;BME280;30544;42.196;24.336;2023-01-26T13:01:56;99231.84;;;3.21;92.39
26376;BME280;30544;42.196;24.336;2023-01-26T13:04:25;99226.78;;;3.53;91.17
26376;BME280;30544;42.196;24.336;2023-01-26T13:07:00;99225.78;;;3.32;92.55
26376;BME280;30544;42.196;24.336;2023-01-26T13:09:27;99220.63;;;3.51;92.98
26376;BME280;30544;42.196;24.336;2023-01-26T13:11:55;99219.63;;;3.58;92.43
26376;BME280;30544;42.196;24.336;2023-01-26T13:14:29;99213.63;;;3.42;92.77
26376;BME280;30544;42.196;24.336;2023-01-26T13:16:56;99210.84;;;3.35;92.25
26376;BME280;30544;42.196;24.336;2023-01-26T13:19:36;99210.72;;;3.15;93.31
26376;BME280;30544;42.196;24.336;2023-01-26T13:22:37;99217.75;;;2.96;93.56